Airfield :
LOGIN :

Register | Disclaimer

   EN    FR    IT 

 










Legend :    VFR   Marginal VFR   IFR   Intensive IFR   Very Intensive IFR
Visi :
Ceiling :
>= 8 km
>= 3000ft
5 to 8 km
1000 to 3000 ft
1500m to 5 km
500 to 1000 ft
800 to 1500m
200 to 500 ft
< 800m
< 200 ft
Symbols :   Thunderstorms  Fog  Heavy snow  Heavy precipitations  Wind > 20 kt
SIGMETs :     Misc.  Thunderstorms  Icing  Turbulence  Mountain Waves  Volcanic Ashes






- Airport Elevation : 364 ft


LFAQ - Albert Bray

CURRENT METAR :
  • 230200Z AUTO 20007KT 9999 FEW006 OVC028 18/17 Q1017

EXPIRED METARs :
  • 230130Z AUTO 21009KT 5000 -RA BR OVC032 18/17 Q1017
  • 230100Z AUTO 22010KT 5000 -RA BR FEW013 SCT027 BKN033 18/17 Q1018
  • 230030Z AUTO 21009KT 9999 FEW034 OVC046 19/16 Q1018
  • 230000Z AUTO 21008KT 9999 BKN046 OVC056 19/16 Q1018
  • 222330Z AUTO 21007KT 9999 BKN045 OVC056 19/16 Q1018
  • 222300Z AUTO 20006KT CAVOK 19/16 Q1018
  • 222230Z AUTO 21006KT CAVOK 19/16 Q1018
  • 222200Z AUTO 22006KT CAVOK 19/16 Q1018
  • 222130Z AUTO 24005KT 9999 FEW025 BKN050 OVC062 20/17 Q1019
  • 222100Z AUTO 24008KT 9999 FEW026 BKN037 OVC060 20/17 Q1019

Expired Forecast.



MET'MAP, your aeronautical weather chart ! - Copyright ORBIFLY December 2007 - Disclaimer

ORBIFLY MET'MAP TEAM :

Programming & Development : Alexandra Zaïnal
Original concept : Baudouin d'Aumeries
Technical & hardware support : Manuel Goepfert
Assistance : Marc-Olivier Méhu




SOURCES & CREDITS :

   NOAA